createdAt,value
2018-09-28T00:00:01.721Z,22.13
2018-09-28T00:00:33.322Z,22.13
2018-09-28T00:01:04.921Z,22.13
2018-09-28T00:01:36.530Z,22.13
2018-09-28T00:02:08.133Z,22.14
2018-09-28T00:02:39.766Z,22.16
2018-09-28T00:03:11.362Z,22.17
2018-09-28T00:03:42.958Z,22.18
2018-09-28T00:04:14.538Z,22.16
2018-09-28T00:04:46.138Z,22.18
2018-09-28T00:05:17.746Z,22.18
2018-09-28T00:05:49.365Z,22.17
2018-09-28T00:06:20.975Z,22.19
2018-09-28T00:06:52.586Z,22.18
2018-09-28T00:07:24.351Z,22.18
2018-09-28T00:07:55.953Z,22.18
2018-09-28T00:08:27.558Z,22.18
2018-09-28T00:08:59.163Z,22.17
2018-09-28T00:09:30.771Z,22.18
2018-09-28T00:10:02.365Z,22.18
2018-09-28T00:10:33.977Z,22.17
2018-09-28T00:11:05.584Z,22.19
2018-09-28T00:11:37.172Z,22.19
2018-09-28T00:12:08.764Z,22.20
2018-09-28T00:12:40.381Z,22.19
2018-09-28T00:13:11.971Z,22.21
2018-09-28T00:13:43.557Z,22.20
2018-09-28T00:14:15.152Z,22.18
2018-09-28T00:14:46.754Z,22.21
2018-09-28T00:15:18.348Z,22.20
2018-09-28T00:15:49.944Z,22.20
2018-09-28T00:16:21.552Z,22.20
2018-09-28T00:16:53.143Z,22.18
2018-09-28T00:17:24.747Z,22.18
2018-09-28T00:17:56.368Z,22.17
2018-09-28T00:18:27.960Z,22.18
2018-09-28T00:18:59.685Z,22.17
2018-09-28T00:19:31.290Z,22.18
2018-09-28T00:20:02.886Z,22.19
2018-09-28T00:20:34.480Z,22.19
2018-09-28T00:21:06.062Z,22.19
2018-09-28T00:21:37.639Z,22.19
2018-09-28T00:22:09.236Z,22.19
2018-09-28T00:22:40.872Z,22.20
2018-09-28T00:23:12.464Z,22.21
2018-09-28T00:23:44.056Z,22.20
2018-09-28T00:24:15.643Z,22.20
2018-09-28T00:24:47.247Z,22.19
2018-09-28T00:25:18.852Z,22.18
2018-09-28T00:25:50.451Z,22.18
2018-09-28T00:26:22.048Z,22.18
2018-09-28T00:26:53.637Z,22.18
2018-09-28T00:27:25.232Z,22.18
2018-09-28T00:27:56.862Z,22.18
2018-09-28T00:28:28.458Z,22.18
2018-09-28T00:29:00.049Z,22.18
2018-09-28T00:29:31.646Z,22.19
2018-09-28T00:30:03.250Z,22.18
2018-09-28T00:30:34.840Z,22.18
2018-09-28T00:31:06.445Z,22.18
2018-09-28T00:31:38.054Z,22.17
2018-09-28T00:32:09.657Z,22.17
2018-09-28T00:32:41.294Z,22.17
2018-09-28T00:33:12.901Z,22.16
2018-09-28T00:33:44.507Z,22.16
2018-09-28T00:34:16.120Z,22.16
2018-09-28T00:34:47.726Z,22.16
2018-09-28T00:35:19.320Z,22.16
2018-09-28T00:35:50.933Z,22.16
2018-09-28T00:36:22.547Z,22.13
2018-09-28T00:36:54.145Z,22.16
2018-09-28T00:37:25.748Z,22.16
2018-09-28T00:37:57.369Z,22.17
2018-09-28T00:38:28.975Z,22.16
2018-09-28T00:39:00.579Z,22.15
2018-09-28T00:39:32.167Z,22.16
2018-09-28T00:40:03.770Z,22.17
2018-09-28T00:40:35.404Z,22.16
2018-09-28T00:41:06.998Z,22.16
2018-09-28T00:41:38.589Z,22.15
2018-09-28T00:42:10.197Z,22.13
2018-09-28T00:42:41.793Z,22.13
2018-09-28T00:43:13.403Z,22.14
2018-09-28T00:43:45.000Z,22.13
2018-09-28T00:44:16.602Z,22.13
2018-09-28T00:44:48.196Z,22.12
2018-09-28T00:45:19.788Z,22.12
2018-09-28T00:45:51.380Z,22.12
2018-09-28T00:46:22.986Z,22.12
2018-09-28T00:46:54.567Z,22.11
2018-09-28T00:47:26.170Z,22.11
2018-09-28T00:47:57.769Z,22.11
2018-09-28T00:48:29.357Z,22.11
2018-09-28T00:49:00.958Z,22.12
2018-09-28T00:49:32.553Z,22.12
2018-09-28T00:50:04.160Z,22.12
2018-09-28T00:50:35.765Z,22.11
2018-09-28T00:51:07.342Z,22.11
2018-09-28T00:51:38.950Z,22.12
2018-09-28T00:52:10.548Z,22.11
2018-09-28T00:52:42.141Z,22.11
2018-09-28T00:53:13.732Z,22.12
2018-09-28T00:53:45.325Z,22.10
2018-09-28T00:54:16.905Z,22.10
2018-09-28T00:54:48.518Z,22.11
2018-09-28T00:55:20.108Z,22.11
2018-09-28T00:55:51.696Z,22.12
2018-09-28T00:56:23.303Z,22.12
2018-09-28T00:56:54.916Z,22.12
2018-09-28T00:57:26.580Z,22.12
2018-09-28T00:57:58.200Z,22.12
2018-09-28T00:58:29.787Z,22.13
2018-09-28T00:59:01.371Z,22.12
2018-09-28T00:59:32.965Z,22.12
2018-09-28T01:00:04.560Z,22.13
2018-09-28T01:00:36.282Z,22.13
2018-09-28T01:01:07.887Z,22.14
2018-09-28T01:01:39.494Z,22.15
2018-09-28T01:02:11.092Z,22.15
2018-09-28T01:02:42.700Z,22.16
2018-09-28T01:03:14.334Z,22.16
2018-09-28T01:03:45.928Z,22.16
2018-09-28T01:04:17.511Z,22.17
2018-09-28T01:04:49.752Z,22.17
2018-09-28T01:05:21.334Z,22.16
2018-09-28T01:05:52.915Z,22.16
2018-09-28T01:06:24.512Z,22.16
2018-09-28T01:06:56.105Z,22.15
2018-09-28T01:07:27.710Z,22.16
2018-09-28T01:07:59.317Z,22.16
2018-09-28T01:08:30.974Z,22.14
2018-09-28T01:09:02.569Z,22.15
2018-09-28T01:09:34.165Z,22.16
2018-09-28T01:10:05.808Z,22.16
2018-09-28T01:10:37.379Z,22.16
2018-09-28T01:11:08.985Z,22.15
2018-09-28T01:11:40.590Z,22.15
2018-09-28T01:12:12.184Z,22.16
2018-09-28T01:12:43.776Z,22.16
2018-09-28T01:13:15.373Z,22.16
2018-09-28T01:13:47.021Z,22.15
2018-09-28T01:14:18.609Z,22.15
2018-09-28T01:14:50.220Z,22.14
2018-09-28T01:15:21.822Z,22.14
2018-09-28T01:15:53.417Z,22.14
2018-09-28T01:16:24.998Z,22.14
2018-09-28T01:16:56.588Z,22.14
2018-09-28T01:17:28.268Z,22.15
2018-09-28T01:17:59.851Z,22.16
2018-09-28T01:18:31.454Z,22.16
2018-09-28T01:19:03.091Z,22.16
2018-09-28T01:19:34.699Z,22.15
2018-09-28T01:20:06.306Z,22.16
2018-09-28T01:20:37.910Z,22.16
2018-09-28T01:21:09.500Z,22.15
2018-09-28T01:21:41.092Z,22.15
2018-09-28T01:22:12.680Z,22.15
2018-09-28T01:22:44.258Z,22.14
2018-09-28T01:23:15.860Z,22.14
2018-09-28T01:23:47.456Z,22.13
2018-09-28T01:24:19.087Z,22.14
2018-09-28T01:24:50.739Z,22.14
2018-09-28T01:25:22.342Z,22.11
2018-09-28T01:25:53.932Z,22.14
2018-09-28T01:26:25.535Z,22.14
2018-09-28T01:26:57.124Z,22.14
2018-09-28T01:27:28.728Z,22.14
2018-09-28T01:28:00.320Z,22.14
2018-09-28T01:28:31.923Z,22.13
2018-09-28T01:29:03.533Z,22.12
2018-09-28T01:29:35.158Z,22.10
2018-09-28T01:30:06.780Z,22.10
2018-09-28T01:30:38.368Z,22.10
2018-09-28T01:31:09.970Z,22.12
2018-09-28T01:31:41.564Z,22.12
2018-09-28T01:32:13.208Z,22.12
2018-09-28T01:32:44.802Z,22.12
2018-09-28T01:33:16.410Z,22.13
2018-09-28T01:33:47.986Z,22.12
2018-09-28T01:34:19.590Z,22.12
2018-09-28T01:34:51.369Z,22.12
2018-09-28T01:35:22.965Z,22.13
2018-09-28T01:35:54.570Z,22.14
2018-09-28T01:36:26.164Z,22.14
2018-09-28T01:36:57.751Z,22.15
2018-09-28T01:37:29.354Z,22.11
2018-09-28T01:38:00.952Z,22.13
2018-09-28T01:38:32.554Z,22.14
2018-09-28T01:39:04.144Z,22.15
2018-09-28T01:39:35.736Z,22.15
2018-09-28T01:40:07.328Z,22.15
2018-09-28T01:40:38.925Z,22.16
2018-09-28T01:41:10.503Z,22.15
2018-09-28T01:41:42.096Z,22.16
2018-09-28T01:42:13.675Z,22.14
2018-09-28T01:42:45.270Z,22.14
2018-09-28T01:43:16.870Z,22.14
2018-09-28T01:43:48.465Z,22.13
2018-09-28T01:44:20.061Z,22.12
2018-09-28T01:44:51.639Z,22.12
2018-09-28T01:45:23.232Z,22.01
2018-09-28T01:45:54.833Z,22.13
2018-09-28T01:46:26.424Z,22.12
2018-09-28T01:46:58.002Z,22.12
2018-09-28T01:47:29.583Z,22.12
2018-09-28T01:48:01.194Z,22.11
2018-09-28T01:48:32.788Z,22.10
2018-09-28T01:49:04.370Z,22.10
2018-09-28T01:49:35.974Z,22.10
2018-09-28T01:50:07.620Z,22.10
2018-09-28T01:50:39.231Z,22.10
2018-09-28T01:51:10.842Z,22.10
2018-09-28T01:51:42.440Z,22.07
2018-09-28T01:52:14.047Z,22.09
2018-09-28T01:52:45.640Z,22.09
2018-09-28T01:53:17.243Z,22.10
2018-09-28T01:53:48.833Z,22.07
2018-09-28T01:54:20.419Z,22.08
2018-09-28T01:54:52.017Z,22.06
2018-09-28T01:55:23.641Z,22.08
2018-09-28T01:55:55.233Z,22.09
2018-09-28T01:56:26.842Z,22.09
2018-09-28T01:56:58.445Z,22.11
2018-09-28T01:57:30.047Z,22.11
2018-09-28T01:58:01.627Z,22.12
2018-09-28T01:58:33.224Z,22.11
2018-09-28T01:59:04.839Z,22.11
2018-09-28T01:59:36.441Z,22.12
2018-09-28T02:00:08.046Z,22.11
2018-09-28T02:00:39.677Z,22.11
2018-09-28T02:01:11.283Z,22.12
2018-09-28T02:01:42.887Z,22.12
2018-09-28T02:02:14.498Z,22.12
2018-09-28T02:02:46.079Z,22.11
2018-09-28T02:03:17.675Z,22.12
2018-09-28T02:03:49.279Z,22.15
2018-09-28T02:04:20.876Z,22.16
2018-09-28T02:04:52.479Z,22.16
2018-09-28T02:05:24.082Z,22.15
2018-09-28T02:05:55.717Z,22.13
2018-09-28T02:06:27.312Z,22.16
2018-09-28T02:06:58.890Z,22.16
2018-09-28T02:07:30.495Z,22.15
2018-09-28T02:08:02.092Z,22.16
2018-09-28T02:08:33.694Z,22.15
2018-09-28T02:09:05.303Z,22.15
2018-09-28T02:09:36.898Z,22.15
2018-09-28T02:10:08.493Z,22.12
2018-09-28T02:10:40.128Z,22.15
2018-09-28T02:11:11.721Z,22.13
2018-09-28T02:11:43.382Z,22.13
2018-09-28T02:12:14.982Z,22.13
2018-09-28T02:12:46.591Z,22.13
2018-09-28T02:13:18.170Z,22.13
2018-09-28T02:13:49.760Z,22.13
2018-09-28T02:14:21.356Z,22.13
2018-09-28T02:14:52.954Z,22.13
2018-09-28T02:15:24.562Z,22.13
2018-09-28T02:15:56.218Z,22.13
2018-09-28T02:16:27.810Z,22.13
2018-09-28T02:16:59.400Z,22.13
2018-09-28T02:17:31.050Z,22.13
2018-09-28T02:18:02.626Z,22.13
2018-09-28T02:18:34.210Z,22.13
2018-09-28T02:19:05.805Z,22.14
2018-09-28T02:19:37.411Z,22.14
2018-09-28T02:20:09.014Z,22.14
2018-09-28T02:20:40.619Z,22.15
2018-09-28T02:21:12.254Z,22.16
2018-09-28T02:21:43.858Z,22.15
2018-09-28T02:22:15.439Z,22.16
2018-09-28T02:22:47.074Z,22.16
2018-09-28T02:23:18.659Z,22.17
2018-09-28T02:23:50.263Z,22.17
2018-09-28T02:24:21.860Z,22.16
2018-09-28T02:24:53.438Z,22.16
2018-09-28T02:25:25.029Z,22.16
2018-09-28T02:25:56.648Z,22.16
2018-09-28T02:26:28.245Z,22.16
2018-09-28T02:26:59.823Z,22.15
2018-09-28T02:27:31.412Z,22.16
2018-09-28T02:28:03.018Z,22.17
2018-09-28T02:28:34.616Z,22.16
2018-09-28T02:29:06.226Z,22.16
2018-09-28T02:29:37.830Z,22.17
2018-09-28T02:30:09.428Z,22.18
2018-09-28T02:30:41.039Z,22.18
2018-09-28T02:31:12.665Z,22.17
2018-09-28T02:31:44.257Z,22.16
2018-09-28T02:32:15.836Z,22.17
2018-09-28T02:32:47.424Z,22.17
2018-09-28T02:33:19.012Z,22.16
2018-09-28T02:33:50.590Z,22.17
2018-09-28T02:34:22.190Z,22.16
2018-09-28T02:34:53.784Z,22.16
2018-09-28T02:35:25.396Z,22.16
2018-09-28T02:35:57.056Z,22.17
2018-09-28T02:36:28.652Z,22.17
2018-09-28T02:37:00.254Z,22.18
2018-09-28T02:37:31.864Z,22.17
2018-09-28T02:38:03.471Z,22.18
2018-09-28T02:38:35.064Z,22.19
2018-09-28T02:39:06.656Z,22.19
2018-09-28T02:39:38.258Z,22.19
2018-09-28T02:40:09.853Z,22.19
2018-09-28T02:40:41.459Z,22.20
2018-09-28T02:41:13.080Z,22.26
2018-09-28T02:41:44.690Z,22.33
2018-09-28T02:42:16.298Z,22.40
2018-09-28T02:42:47.907Z,22.46
2018-09-28T02:43:19.487Z,22.44
2018-09-28T02:43:51.084Z,22.41
2018-09-28T02:44:22.672Z,22.37
2018-09-28T02:44:54.282Z,22.34
2018-09-28T02:45:25.877Z,22.30
2018-09-28T02:45:57.469Z,22.27
2018-09-28T02:46:29.089Z,22.25
2018-09-28T02:47:00.676Z,22.22
2018-09-28T02:47:32.269Z,22.17
2018-09-28T02:48:03.875Z,22.17
2018-09-28T02:48:35.478Z,22.15
2018-09-28T02:49:07.087Z,22.12
2018-09-28T02:49:38.684Z,22.11
2018-09-28T02:50:10.287Z,22.09
2018-09-28T02:50:41.889Z,22.10
2018-09-28T02:51:13.582Z,22.13
2018-09-28T02:51:45.177Z,22.16
2018-09-28T02:52:16.782Z,22.20
2018-09-28T02:52:48.386Z,22.22
2018-09-28T02:53:19.977Z,22.26
2018-09-28T02:53:51.572Z,22.29
2018-09-28T02:54:23.169Z,22.34
2018-09-28T02:54:54.768Z,22.35
2018-09-28T02:55:26.356Z,22.35
2018-09-28T02:55:57.958Z,22.31
2018-09-28T02:56:29.580Z,22.27
2018-09-28T02:57:01.200Z,22.23
2018-09-28T02:57:32.793Z,22.19
2018-09-28T02:58:04.409Z,22.15
2018-09-28T02:58:36.004Z,22.12
2018-09-28T02:59:08.206Z,22.10
2018-09-28T02:59:39.813Z,22.07
2018-09-28T03:00:11.405Z,22.05
2018-09-28T03:00:43.020Z,22.03
2018-09-28T03:01:14.848Z,22.01
2018-09-28T03:01:46.443Z,21.74
2018-09-28T03:02:18.051Z,21.17
2018-09-28T03:02:49.649Z,20.62
2018-09-28T03:03:21.254Z,20.17
2018-09-28T03:03:52.871Z,19.81
2018-09-28T03:04:24.464Z,19.57
2018-09-28T03:04:56.042Z,19.36
2018-09-28T03:05:27.637Z,19.16
2018-09-28T03:05:59.238Z,19.02
2018-09-28T03:06:30.863Z,18.94
2018-09-28T03:07:02.464Z,18.85
2018-09-28T03:07:34.061Z,18.86
2018-09-28T03:08:05.653Z,19.10
2018-09-28T03:08:37.258Z,19.39
2018-09-28T03:09:08.838Z,19.65
2018-09-28T03:09:40.433Z,19.87
2018-09-28T03:10:12.039Z,20.08
2018-09-28T03:10:43.658Z,20.26
2018-09-28T03:11:15.271Z,20.41
2018-09-28T03:11:46.868Z,20.55
2018-09-28T03:12:18.475Z,20.67
2018-09-28T03:12:50.073Z,20.77
2018-09-28T03:13:21.669Z,20.86
2018-09-28T03:13:53.259Z,20.94
2018-09-28T03:14:24.838Z,21.00
2018-09-28T03:14:56.448Z,21.06
2018-09-28T03:15:28.041Z,21.11
2018-09-28T03:15:59.636Z,21.14
2018-09-28T03:16:31.266Z,21.21
2018-09-28T03:17:02.878Z,21.25
2018-09-28T03:17:34.468Z,21.28
2018-09-28T03:18:06.061Z,21.32
2018-09-28T03:18:37.666Z,21.34
2018-09-28T03:19:09.270Z,21.37
2018-09-28T03:19:40.864Z,21.40
2018-09-28T03:20:12.475Z,21.44
2018-09-28T03:20:44.088Z,21.46
2018-09-28T03:21:15.684Z,21.50
2018-09-28T03:21:47.286Z,21.54
2018-09-28T03:22:18.881Z,21.57
2018-09-28T03:22:50.482Z,21.61
2018-09-28T03:23:22.077Z,21.64
2018-09-28T03:23:53.673Z,21.67
2018-09-28T03:24:25.282Z,21.72
2018-09-28T03:24:56.892Z,21.74
2018-09-28T03:25:28.480Z,21.78
2018-09-28T03:26:00.141Z,21.82
2018-09-28T03:26:31.758Z,21.86
2018-09-28T03:27:03.348Z,21.90
2018-09-28T03:27:34.952Z,21.94
2018-09-28T03:28:06.538Z,21.96
2018-09-28T03:28:38.142Z,22.00
2018-09-28T03:29:09.738Z,22.04
2018-09-28T03:29:41.339Z,22.08
2018-09-28T03:30:12.962Z,22.11
2018-09-28T03:30:44.546Z,22.14
2018-09-28T03:31:16.136Z,22.18
2018-09-28T03:31:47.779Z,22.21
2018-09-28T03:32:19.387Z,22.24
2018-09-28T03:32:50.990Z,22.26
2018-09-28T03:33:22.575Z,22.27
2018-09-28T03:33:54.159Z,22.29
2018-09-28T03:34:25.748Z,22.31
2018-09-28T03:34:57.336Z,22.33
2018-09-28T03:35:28.939Z,22.36
2018-09-28T03:36:00.538Z,22.37
2018-09-28T03:36:32.129Z,22.38
2018-09-28T03:37:03.763Z,22.37
2018-09-28T03:37:35.360Z,22.39
2018-09-28T03:38:06.962Z,22.40
2018-09-28T03:38:38.569Z,22.41
2018-09-28T03:39:10.160Z,22.40
2018-09-28T03:39:41.753Z,22.40
2018-09-28T03:40:13.345Z,22.40
2018-09-28T03:40:45.022Z,22.40
2018-09-28T03:41:16.565Z,22.40
2018-09-28T03:41:48.204Z,22.39
2018-09-28T03:42:19.809Z,22.40
2018-09-28T03:42:51.405Z,22.39
2018-09-28T03:43:22.997Z,22.39
2018-09-28T03:43:54.596Z,22.38
2018-09-28T03:44:26.203Z,22.37
2018-09-28T03:44:57.796Z,22.36
2018-09-28T03:45:29.389Z,22.36
2018-09-28T03:46:00.970Z,22.36
2018-09-28T03:46:32.564Z,22.35
2018-09-28T03:47:04.188Z,22.34
2018-09-28T03:47:35.795Z,22.34
2018-09-28T03:48:07.382Z,22.32
2018-09-28T03:48:38.990Z,22.32
2018-09-28T03:49:10.602Z,22.31
2018-09-28T03:49:42.206Z,22.31
2018-09-28T03:50:13.793Z,22.30
2018-09-28T03:50:45.390Z,22.29
2018-09-28T03:51:17.006Z,22.27
2018-09-28T03:51:48.652Z,22.26
2018-09-28T03:52:20.254Z,22.26
2018-09-28T03:52:51.853Z,22.24
2018-09-28T03:53:23.448Z,22.23
2018-09-28T03:53:55.041Z,22.22
2018-09-28T03:54:26.622Z,22.20
2018-09-28T03:54:58.227Z,22.19
2018-09-28T03:55:29.820Z,22.16
2018-09-28T03:56:01.419Z,22.16
2018-09-28T03:56:33.020Z,22.14
2018-09-28T03:57:04.651Z,22.14
2018-09-28T03:57:36.252Z,22.13
2018-09-28T03:58:07.852Z,22.12
2018-09-28T03:58:39.440Z,22.12
2018-09-28T03:59:11.036Z,22.10
2018-09-28T03:59:42.624Z,22.09
2018-09-28T04:00:14.203Z,22.08
2018-09-28T04:00:45.811Z,22.05
2018-09-28T04:01:17.418Z,22.06
2018-09-28T04:01:49.016Z,22.05
2018-09-28T04:02:20.618Z,22.05
2018-09-28T04:02:52.223Z,22.03
2018-09-28T04:03:23.828Z,22.02
2018-09-28T04:03:55.411Z,22.01
2018-09-28T04:04:27.020Z,22.00
2018-09-28T04:04:58.598Z,21.99
2018-09-28T04:05:30.206Z,21.97
2018-09-28T04:06:01.804Z,21.97
2018-09-28T04:06:33.397Z,21.96
2018-09-28T04:07:05.017Z,21.95
2018-09-28T04:07:36.620Z,21.95
2018-09-28T04:08:08.225Z,21.93
2018-09-28T04:08:39.836Z,21.93
2018-09-28T04:09:11.424Z,21.92
2018-09-28T04:09:43.017Z,21.91
2018-09-28T04:10:15.115Z,21.90
2018-09-28T04:10:46.803Z,21.88
2018-09-28T04:11:18.397Z,21.88
2018-09-28T04:11:49.993Z,21.87
2018-09-28T04:12:21.602Z,21.83
2018-09-28T04:12:53.206Z,21.84
2018-09-28T04:13:24.805Z,21.83
2018-09-28T04:13:56.407Z,21.81
2018-09-28T04:14:27.993Z,21.80
2018-09-28T04:14:59.679Z,21.79
2018-09-28T04:15:31.273Z,21.78
2018-09-28T04:16:02.857Z,21.77
2018-09-28T04:16:34.454Z,21.77
2018-09-28T04:17:06.107Z,21.75
2018-09-28T04:17:37.696Z,21.75
2018-09-28T04:18:09.289Z,21.74
2018-09-28T04:18:40.884Z,21.74
2018-09-28T04:19:12.476Z,21.73
2018-09-28T04:19:44.084Z,21.72
2018-09-28T04:20:15.674Z,21.71
2018-09-28T04:20:47.279Z,21.70
2018-09-28T04:21:18.872Z,21.69
2018-09-28T04:21:50.524Z,21.67
2018-09-28T04:22:22.682Z,21.67
2018-09-28T04:22:54.405Z,21.67
2018-09-28T04:23:26.494Z,21.67
2018-09-28T04:23:58.920Z,21.66
2018-09-28T04:24:31.174Z,21.65
2018-09-28T04:25:02.991Z,21.64
2018-09-28T04:25:35.134Z,21.64
2018-09-28T04:26:06.737Z,21.63
2018-09-28T04:26:38.344Z,21.62
2018-09-28T04:27:09.964Z,21.62
2018-09-28T04:27:41.573Z,21.61
2018-09-28T04:28:13.151Z,21.61
2018-09-28T04:28:44.745Z,21.60
2018-09-28T04:29:16.340Z,21.60
2018-09-28T04:29:47.941Z,21.59
2018-09-28T04:30:19.547Z,21.59
2018-09-28T04:30:51.140Z,21.58
2018-09-28T04:31:22.743Z,21.58
2018-09-28T04:31:54.326Z,21.57
2018-09-28T04:32:25.948Z,21.55
2018-09-28T04:32:57.541Z,21.55
2018-09-28T04:33:29.133Z,21.55
2018-09-28T04:34:00.746Z,21.54
2018-09-28T04:34:32.357Z,21.53
2018-09-28T04:35:03.946Z,21.53
2018-09-28T04:35:35.554Z,21.52
2018-09-28T04:36:07.145Z,21.52
2018-09-28T04:36:38.734Z,21.51
2018-09-28T04:37:10.332Z,21.51
2018-09-28T04:37:41.942Z,21.50
2018-09-28T04:38:13.526Z,21.50
2018-09-28T04:38:45.104Z,21.49
2018-09-28T04:39:16.696Z,21.48
2018-09-28T04:39:48.322Z,21.48
2018-09-28T04:40:19.921Z,21.47
2018-09-28T04:40:51.505Z,21.47
2018-09-28T04:41:23.107Z,21.46
2018-09-28T04:41:54.704Z,21.46
2018-09-28T04:42:26.334Z,21.45
2018-09-28T04:42:57.936Z,21.45
2018-09-28T04:43:29.520Z,21.43
2018-09-28T04:44:01.113Z,21.44
2018-09-28T04:44:32.723Z,21.43
2018-09-28T04:45:04.357Z,21.43
2018-09-28T04:45:36.007Z,21.42
2018-09-28T04:46:07.587Z,21.41
2018-09-28T04:46:39.184Z,21.41
2018-09-28T04:47:10.795Z,21.40
2018-09-28T04:47:42.427Z,21.39
2018-09-28T04:48:14.031Z,21.39
2018-09-28T04:48:45.621Z,21.38
2018-09-28T04:49:17.215Z,21.37
2018-09-28T04:49:48.823Z,21.37
2018-09-28T04:50:20.417Z,21.37
2018-09-28T04:50:52.013Z,21.36
2018-09-28T04:51:23.619Z,21.36
2018-09-28T04:51:55.216Z,21.35
2018-09-28T04:52:26.869Z,21.34
2018-09-28T04:52:58.478Z,21.34
2018-09-28T04:53:30.077Z,21.34
2018-09-28T04:54:01.672Z,21.33
2018-09-28T04:54:33.283Z,21.33
2018-09-28T04:55:04.890Z,21.32
2018-09-28T04:55:36.498Z,21.31
2018-09-28T04:56:08.110Z,21.32
2018-09-28T04:56:39.701Z,21.31
2018-09-28T04:57:11.282Z,21.31
2018-09-28T04:57:42.904Z,21.30
2018-09-28T04:58:14.496Z,21.30
2018-09-28T04:58:46.079Z,21.31
2018-09-28T04:59:17.681Z,21.30
2018-09-28T04:59:49.291Z,21.31
2018-09-28T05:00:20.888Z,21.32
2018-09-28T05:00:52.480Z,21.32
2018-09-28T05:01:24.072Z,21.32
2018-09-28T05:01:55.664Z,21.33
2018-09-28T05:02:27.262Z,21.34
2018-09-28T05:02:58.885Z,21.35
2018-09-28T05:03:30.472Z,21.36
2018-09-28T05:04:02.078Z,21.36
2018-09-28T05:04:33.667Z,21.37
2018-09-28T05:05:05.270Z,21.38
2018-09-28T05:05:36.875Z,21.39
2018-09-28T05:06:08.482Z,21.39
2018-09-28T05:06:40.079Z,21.40
2018-09-28T05:07:11.659Z,21.41
2018-09-28T05:07:43.262Z,21.42
2018-09-28T05:08:14.856Z,21.43
2018-09-28T05:08:46.462Z,21.44
2018-09-28T05:09:18.042Z,21.45
2018-09-28T05:09:49.642Z,21.46
2018-09-28T05:10:21.246Z,21.47
2018-09-28T05:10:52.845Z,21.48
2018-09-28T05:11:24.436Z,21.50
2018-09-28T05:11:56.029Z,21.51
2018-09-28T05:12:27.629Z,21.51
2018-09-28T05:12:59.267Z,21.53
2018-09-28T05:13:30.859Z,21.55
2018-09-28T05:14:02.439Z,21.57
2018-09-28T05:14:34.033Z,21.58
2018-09-28T05:15:05.638Z,21.59
2018-09-28T05:15:37.241Z,21.60
2018-09-28T05:16:08.842Z,21.62
2018-09-28T05:16:40.479Z,21.63
2018-09-28T05:17:12.087Z,21.64
2018-09-28T05:17:43.718Z,21.65
2018-09-28T05:18:15.322Z,21.65
2018-09-28T05:18:46.903Z,21.69
2018-09-28T05:19:18.485Z,21.69
2018-09-28T05:19:50.092Z,21.71
2018-09-28T05:20:21.703Z,21.71
2018-09-28T05:20:53.311Z,21.71
2018-09-28T05:21:24.909Z,21.72
2018-09-28T05:21:56.499Z,21.74
2018-09-28T05:22:28.107Z,21.75
2018-09-28T05:22:59.732Z,21.76
2018-09-28T05:23:31.343Z,21.76
2018-09-28T05:24:02.951Z,21.78
2018-09-28T05:24:34.559Z,21.79
2018-09-28T05:25:06.143Z,21.79
2018-09-28T05:25:37.733Z,21.80
2018-09-28T05:26:09.337Z,21.82
2018-09-28T05:26:40.933Z,21.81
2018-09-28T05:27:12.560Z,21.82
2018-09-28T05:27:44.164Z,21.82
2018-09-28T05:28:15.776Z,21.82
2018-09-28T05:28:47.385Z,21.84
2018-09-28T05:29:18.976Z,21.85
2018-09-28T05:29:50.579Z,21.85
2018-09-28T05:30:22.173Z,21.85
2018-09-28T05:30:54.412Z,21.85
2018-09-28T05:31:25.436Z,21.86
2018-09-28T05:31:57.104Z,21.84
2018-09-28T05:32:28.679Z,21.88
2018-09-28T05:33:00.323Z,21.88
2018-09-28T05:33:31.888Z,21.89
2018-09-28T05:34:03.483Z,21.88
2018-09-28T05:34:35.073Z,21.87
2018-09-28T05:35:06.666Z,21.88
2018-09-28T05:35:38.269Z,21.89
2018-09-28T05:36:09.868Z,21.89
2018-09-28T05:36:41.464Z,21.90
2018-09-28T05:37:13.087Z,21.88
2018-09-28T05:37:44.661Z,21.88
2018-09-28T05:38:16.291Z,21.87
2018-09-28T05:38:47.884Z,21.87
2018-09-28T05:39:19.507Z,21.88
2018-09-28T05:39:51.089Z,21.88
2018-09-28T05:40:22.680Z,21.87
2018-09-28T05:40:54.272Z,21.88
2018-09-28T05:41:25.851Z,21.87
2018-09-28T05:41:57.455Z,21.87
2018-09-28T05:42:29.069Z,21.86
2018-09-28T05:43:00.661Z,21.85
2018-09-28T05:43:32.285Z,21.84
2018-09-28T05:44:03.881Z,21.84
2018-09-28T05:44:35.476Z,21.83
2018-09-28T05:45:07.056Z,21.82
2018-09-28T05:45:38.653Z,21.81
2018-09-28T05:46:10.267Z,21.80
2018-09-28T05:46:41.886Z,21.80
2018-09-28T05:47:13.485Z,21.79
2018-09-28T05:47:45.083Z,21.79
2018-09-28T05:48:16.690Z,21.79
2018-09-28T05:48:48.288Z,21.79
2018-09-28T05:49:19.893Z,21.79
2018-09-28T05:49:51.488Z,21.78
2018-09-28T05:50:23.081Z,21.78
2018-09-28T05:50:54.691Z,21.77
2018-09-28T05:51:26.304Z,21.77
2018-09-28T05:51:57.910Z,21.76
2018-09-28T05:52:29.505Z,21.75
2018-09-28T05:53:01.086Z,21.74
2018-09-28T05:53:32.704Z,21.74
2018-09-28T05:54:04.301Z,21.73
2018-09-28T05:54:35.902Z,21.73
2018-09-28T05:55:07.500Z,21.72
2018-09-28T05:55:39.096Z,21.71
2018-09-28T05:56:10.689Z,21.71
2018-09-28T05:56:42.298Z,21.70
2018-09-28T05:57:13.895Z,21.68
2018-09-28T05:57:45.502Z,21.67
2018-09-28T05:58:17.125Z,21.67
2018-09-28T05:58:48.706Z,21.67
2018-09-28T05:59:36.100Z,21.67
2018-09-28T06:01:10.178Z,21.65
2018-09-28T06:01:59.492Z,21.64
2018-09-28T06:02:51.815Z,21.62
2018-09-28T06:03:23.436Z,21.62
2018-09-28T06:03:55.015Z,21.61
2018-09-28T06:04:26.609Z,21.61
2018-09-28T06:05:13.103Z,21.61
2018-09-28T06:05:44.719Z,21.60
2018-09-28T06:06:16.309Z,21.59
2018-09-28T06:06:47.886Z,21.58
2018-09-28T06:07:19.491Z,21.58
2018-09-28T06:07:51.103Z,21.57
2018-09-28T06:08:22.722Z,21.57
2018-09-28T06:08:54.302Z,21.57
2018-09-28T06:09:25.906Z,21.55
2018-09-28T06:09:57.510Z,21.55
2018-09-28T06:10:29.100Z,21.55
2018-09-28T06:11:00.706Z,21.54
2018-09-28T06:11:32.314Z,21.53
2018-09-28T06:12:03.936Z,21.53
2018-09-28T06:12:35.524Z,21.53
2018-09-28T06:13:07.126Z,21.52
2018-09-28T06:13:38.731Z,21.51
2018-09-28T06:14:10.339Z,21.50
2018-09-28T06:14:41.931Z,21.50
2018-09-28T06:15:13.511Z,21.50
2018-09-28T06:15:45.110Z,21.49
2018-09-28T06:16:16.706Z,21.49
2018-09-28T06:16:48.290Z,21.49
2018-09-28T06:17:19.879Z,21.49
2018-09-28T06:17:51.548Z,21.47
2018-09-28T06:18:23.157Z,21.48
2018-09-28T06:18:54.802Z,21.48
2018-09-28T06:19:26.393Z,21.47
2018-09-28T06:19:58.001Z,21.46
2018-09-28T06:20:29.616Z,21.46
2018-09-28T06:21:01.195Z,21.45
2018-09-28T06:21:32.791Z,21.45
2018-09-28T06:22:04.376Z,21.45
2018-09-28T06:22:35.983Z,21.45
2018-09-28T06:23:07.577Z,21.45
2018-09-28T06:23:39.182Z,21.44
2018-09-28T06:24:10.780Z,21.44
2018-09-28T06:24:42.402Z,21.43
2018-09-28T06:25:14.003Z,21.43
2018-09-28T06:25:45.654Z,21.42
2018-09-28T06:26:17.234Z,21.42
2018-09-28T06:26:48.839Z,21.41
2018-09-28T06:27:20.437Z,21.41
2018-09-28T06:27:52.033Z,21.41
2018-09-28T06:28:23.629Z,21.40
2018-09-28T06:28:55.267Z,21.40
2018-09-28T06:29:26.870Z,21.39
2018-09-28T06:29:58.504Z,21.39
2018-09-28T06:30:30.070Z,21.39
2018-09-28T06:31:01.665Z,21.39
2018-09-28T06:31:33.252Z,21.39
2018-09-28T06:32:04.841Z,21.39
2018-09-28T06:32:36.432Z,21.38
2018-09-28T06:33:08.038Z,21.39
2018-09-28T06:33:39.648Z,21.38
2018-09-28T06:34:11.272Z,21.38
2018-09-28T06:34:42.865Z,21.38
2018-09-28T06:35:14.498Z,21.38
2018-09-28T06:35:46.158Z,21.37
2018-09-28T06:36:17.804Z,21.38
2018-09-28T06:36:49.417Z,21.38
2018-09-28T06:37:21.013Z,21.38
2018-09-28T06:37:52.654Z,21.39
2018-09-28T06:38:24.244Z,21.38
2018-09-28T06:38:55.883Z,21.38
2018-09-28T06:39:27.491Z,21.38
2018-09-28T06:39:59.100Z,21.39
2018-09-28T06:40:30.693Z,21.38
2018-09-28T06:41:02.288Z,21.37
2018-09-28T06:41:33.894Z,21.38
2018-09-28T06:42:05.579Z,21.39
2018-09-28T06:42:37.139Z,21.38
2018-09-28T06:43:08.744Z,21.38
2018-09-28T06:43:40.332Z,21.38
2018-09-28T06:44:11.974Z,21.39
2018-09-28T06:44:43.618Z,21.39
2018-09-28T06:45:15.207Z,21.39
2018-09-28T06:45:46.816Z,21.39
2018-09-28T06:46:18.450Z,21.39
2018-09-28T06:46:50.060Z,21.39
2018-09-28T06:47:21.648Z,21.39
2018-09-28T06:47:53.266Z,21.39
2018-09-28T06:48:24.894Z,21.40
2018-09-28T06:48:56.507Z,21.41